Time;durP1;ratioP1;P1;durP2;ratioP2;P2;SDS_P1;SDS_P2;PMS_P1;PMS_P2;Temp;Humidity;BMP_temperature;BMP_pressure;BME280_temperature;BME280_humidity;BME280_pressure;Samples;Min_cycle;Max_cycle;Signal;HPM_P1;HPM_P2
2020/12/15 00:00:06;;;;;;;65.78;32.23;;;;;;;1.14;82.76;100009.38;1663378;82;21165;-61
2020/12/15 00:02:33;;;;;;;59.80;28.40;;;;;;;1.08;82.92;100004.34;1713578;83;21596;-61
2020/12/15 00:05:01;;;;;;;54.65;28.20;;;;;;;1.02;83.01;100011.86;1687303;83;21177;-61
2020/12/15 00:07:29;;;;;;;50.03;27.27;;;;;;;1.05;82.77;100013.30;1686957;85;21173;-61
2020/12/15 00:09:56;;;;;;;44.80;24.07;;;;;;;1.14;82.38;100012.89;1714578;83;21149;-61
2020/12/15 00:12:23;;;;;;;46.73;25.25;;;;;;;1.06;82.48;100022.50;1707801;83;21150;-62
2020/12/15 00:14:51;;;;;;;46.55;27.15;;;;;;;0.95;82.79;100023.08;1716758;82;21157;-61
2020/12/15 00:17:18;;;;;;;46.33;26.60;;;;;;;0.88;83.04;100020.91;1716305;83;21125;-61
2020/12/15 00:19:46;;;;;;;37.20;23.67;;;;;;;0.94;82.92;100019.58;1688500;83;21224;-61
2020/12/15 00:22:13;;;;;;;45.95;25.30;;;;;;;1.07;82.50;100016.59;1710988;83;21182;-61
2020/12/15 00:24:40;;;;;;;33.65;21.93;;;;;;;1.04;82.64;100019.68;1716773;83;21574;-61
2020/12/15 00:27:08;;;;;;;38.98;23.85;;;;;;;0.96;82.88;100010.80;1717109;82;21211;-60
2020/12/15 00:29:36;;;;;;;40.03;25.57;;;;;;;0.95;82.80;100015.05;1688840;83;21185;-60
2020/12/15 00:32:03;;;;;;;42.43;25.20;;;;;;;0.97;82.67;100015.66;1701681;83;21173;-60
2020/12/15 00:34:31;;;;;;;44.53;27.75;;;;;;;0.92;82.98;100016.25;1717255;83;21306;-60
2020/12/15 00:37:00;;;;;;;41.20;25.68;;;;;;;0.85;83.17;100017.29;1686952;83;21180;-60
2020/12/15 00:39:28;;;;;;;42.60;26.82;;;;;;;0.80;83.44;100011.19;1711456;83;21124;-60
2020/12/15 00:41:56;;;;;;;38.55;25.30;;;;;;;0.89;83.21;100017.17;1717061;83;21165;-61
2020/12/15 00:44:23;;;;;;;34.43;23.73;;;;;;;1.02;82.71;100021.75;1715695;83;21586;-60
2020/12/15 00:46:51;;;;;;;38.98;26.37;;;;;;;0.91;82.87;100022.66;1705710;83;21295;-61
2020/12/15 00:49:18;;;;;;;37.45;25.97;;;;;;;0.81;83.23;100030.27;1706270;83;21326;-61
2020/12/15 00:51:48;;;;;;;39.73;27.00;;;;;;;0.76;83.50;100031.88;1723185;82;21195;-60
2020/12/15 00:54:16;;;;;;;27.65;19.50;;;;;;;0.87;83.31;100027.28;1722679;83;21173;-60
2020/12/15 00:56:44;;;;;;;34.43;22.58;;;;;;;1.03;82.84;100028.78;1710399;83;21176;-60
2020/12/15 00:59:13;;;;;;;30.20;20.37;;;;;;;0.99;82.95;100025.67;1696188;83;21165;-61
2020/12/15 01:01:40;;;;;;;32.05;22.00;;;;;;;0.94;83.21;100033.48;1722526;83;21160;-60
2020/12/15 01:04:09;;;;;;;23.80;16.62;;;;;;;0.86;83.40;100026.96;1722541;83;21130;-61
2020/12/15 01:06:36;;;;;;;29.82;21.23;;;;;;;0.97;83.25;100025.87;1716524;83;21141;-60
2020/12/15 01:09:05;;;;;;;27.70;20.23;;;;;;;1.11;82.84;100020.52;1722758;82;21168;-60
2020/12/15 01:11:34;;;;;;;34.60;25.05;;;;;;;1.07;82.98;100022.78;1701114;83;21178;-60
2020/12/15 01:14:03;;;;;;;30.57;19.70;;;;;;;1.01;83.12;100020.92;1722717;83;21164;-60
2020/12/15 01:16:32;;;;;;;30.35;20.52;;;;;;;0.92;83.21;100019.47;1692843;83;21634;-60
2020/12/15 01:19:00;;;;;;;24.80;18.10;;;;;;;0.98;82.94;100017.31;1694919;83;21161;-60
2020/12/15 01:21:31;;;;;;;26.73;18.12;;;;;;;1.07;82.75;100023.30;1712053;83;21214;-60
2020/12/15 01:24:01;;;;;;;28.42;18.87;;;;;;;1.01;82.95;100026.28;1679252;83;21180;-60
2020/12/15 01:26:31;;;;;;;30.43;19.80;;;;;;;0.97;83.19;100029.05;1724316;82;21156;-60
2020/12/15 01:28:59;;;;;;;28.40;18.52;;;;;;;0.92;83.29;100024.30;1720194;83;21106;-60
2020/12/15 01:31:29;;;;;;;28.42;18.05;;;;;;;1.03;83.07;100028.78;1722603;83;21222;-61
2020/12/15 01:34:05;;;;;;;25.15;17.82;;;;;;;1.21;82.61;100021.77;1803607;79;22808;-58
2020/12/15 01:36:37;;;;;;;25.85;18.15;;;;;;;1.15;82.67;100027.13;1742878;80;21308;-60
2020/12/15 01:39:06;;;;;;;28.10;18.82;;;;;;;1.09;82.98;100023.42;1738674;81;21120;-60
2020/12/15 01:41:36;;;;;;;26.27;17.35;;;;;;;1.07;83.01;100031.34;1767983;80;21607;-60
2020/12/15 01:44:04;;;;;;;23.27;16.17;;;;;;;1.13;82.78;100026.52;1759822;80;21164;-61
2020/12/15 01:46:33;;;;;;;25.17;17.25;;;;;;;1.24;82.35;100027.27;1763048;80;21124;-60
2020/12/15 01:49:01;;;;;;;25.82;17.62;;;;;;;1.19;82.44;100025.70;1730680;80;21164;-60
2020/12/15 01:51:30;;;;;;;27.42;19.07;;;;;;;1.12;82.68;100027.03;1784654;80;21149;-60
2020/12/15 01:54:00;;;;;;;26.57;18.02;;;;;;;1.08;82.88;100020.42;1747061;81;21113;-60
2020/12/15 01:58:55;;;;;;;24.87;15.93;;;;;;;1.28;82.18;100015.91;1807728;77;22969;-60
2020/12/15 02:01:24;;;;;;;28.27;18.92;;;;;;;1.15;82.39;100027.96;1721759;81;21188;-61
2020/12/15 02:03:52;;;;;;;27.93;17.85;;;;;;;1.06;82.63;100020.32;1724855;83;21173;-61
2020/12/15 02:06:37;;;;;;;32.35;19.70;;;;;;;0.99;82.83;100018.43;1755728;79;22930;-58
2020/12/15 02:09:06;;;;;;;28.17;18.67;;;;;;;0.87;82.98;100022.75;1698230;83;21126;-59
2020/12/15 02:11:36;;;;;;;29.32;18.95;;;;;;;0.93;82.87;100025.12;1716070;82;21638;-61
2020/12/15 02:14:05;;;;;;;29.25;18.67;;;;;;;1.02;82.56;100019.91;1720515;83;21181;-61
2020/12/15 02:16:33;;;;;;;31.05;20.50;;;;;;;0.99;82.69;100021.66;1730358;82;21190;-61
2020/12/15 02:19:01;;;;;;;28.23;18.15;;;;;;;0.92;82.95;100020.81;1723537;82;21560;-61
2020/12/15 02:21:31;;;;;;;27.17;16.27;;;;;;;0.84;83.14;100014.29;1720797;82;21552;-61
2020/12/15 02:24:00;;;;;;;29.87;20.00;;;;;;;0.94;82.88;100013.38;1694668;83;21154;-60
2020/12/15 02:26:36;;;;;;;28.32;18.00;;;;;;;1.02;82.81;100020.41;1756626;79;22979;-58
2020/12/15 02:29:04;;;;;;;29.23;19.85;;;;;;;0.93;83.08;100011.72;1722601;83;21291;-58
2020/12/15 02:31:32;;;;;;;25.85;17.07;;;;;;;0.87;83.31;100009.35;1677881;85;21303;-59
2020/12/15 02:34:00;;;;;;;27.48;17.73;;;;;;;0.85;83.54;100009.25;1693638;83;21560;-58
2020/12/15 02:36:29;;;;;;;25.00;17.32;;;;;;;0.93;83.33;100009.05;1694380;83;21165;-59
2020/12/15 02:39:13;;;;;;;22.32;15.43;;;;;;;1.10;82.88;100012.98;1772230;79;22834;-58
2020/12/15 02:41:42;;;;;;;21.45;15.43;;;;;;;0.98;82.97;100010.10;1728016;82;21283;-58
2020/12/15 02:44:11;;;;;;;23.57;15.63;;;;;;;0.88;83.25;100007.50;1692806;83;21200;-58
2020/12/15 02:46:40;;;;;;;24.52;16.50;;;;;;;0.81;83.44;100009.34;1719460;83;21266;-58
2020/12/15 02:49:08;;;;;;;27.00;18.00;;;;;;;0.94;83.22;100012.05;1710711;83;21560;-59
2020/12/15 02:51:36;;;;;;;25.55;18.00;;;;;;;1.01;83.00;100012.88;1721019;83;21168;-58
2020/12/15 02:54:05;;;;;;;27.10;17.30;;;;;;;1.02;83.27;100007.84;1710342;83;21201;-58
2020/12/15 02:56:33;;;;;;;24.67;16.37;;;;;;;1.02;83.43;100009.18;1715915;83;21133;-58
2020/12/15 02:59:02;;;;;;;26.55;18.17;;;;;;;0.99;83.47;100013.07;1710614;83;21683;-58
2020/12/15 03:01:30;;;;;;;23.62;16.25;;;;;;;1.11;83.22;100012.48;1707360;83;21671;-58
2020/12/15 03:03:59;;;;;;;24.47;17.48;;;;;;;1.24;82.68;100016.00;1714376;82;21189;-58
2020/12/15 03:06:28;;;;;;;24.32;15.80;;;;;;;1.20;82.71;100019.31;1695117;83;21176;-60
2020/12/15 03:08:57;;;;;;;22.65;14.47;;;;;;;1.17;82.95;100018.39;1717112;83;21307;-58
2020/12/15 03:11:25;;;;;;;24.18;16.80;;;;;;;1.12;83.11;100020.33;1719298;82;21315;-58
2020/12/15 03:13:54;;;;;;;25.62;17.07;;;;;;;1.17;82.84;100024.55;1707950;83;21279;-59
2020/12/15 03:16:21;;;;;;;25.23;16.65;;;;;;;1.25;82.44;100025.70;1722629;82;21347;-60
2020/12/15 03:18:49;;;;;;;25.92;16.75;;;;;;;1.23;82.65;100024.27;1701553;83;21891;-61
2020/12/15 03:21:20;;;;;;;22.52;14.73;;;;;;;1.16;82.78;100030.14;1708852;83;21159;-60
2020/12/15 03:23:48;;;;;;;24.37;15.80;;;;;;;1.10;82.94;100029.08;1680653;83;21635;-60
2020/12/15 03:26:16;;;;;;;23.95;15.75;;;;;;;1.17;82.71;100027.23;1722714;83;21333;-60
2020/12/15 03:28:44;;;;;;;22.73;15.30;;;;;;;1.26;82.33;100027.37;1713039;83;21402;-60
2020/12/15 03:31:12;;;;;;;21.57;15.00;;;;;;;1.22;82.49;100027.45;1712830;83;21164;-60
2020/12/15 03:33:39;;;;;;;22.07;15.28;;;;;;;1.14;82.58;100023.63;1713488;83;21723;-61
2020/12/15 03:36:09;;;;;;;21.55;13.08;;;;;;;1.03;82.76;100029.58;1686848;83;21168;-61
2020/12/15 03:38:38;;;;;;;22.40;15.15;;;;;;;1.07;82.62;100040.72;1698082;84;21292;-60
2020/12/15 03:41:06;;;;;;;26.95;16.65;;;;;;;1.14;82.34;100040.22;1704342;82;21295;-60
2020/12/15 03:43:41;;;;;;;21.55;14.10;;;;;;;1.10;82.53;100046.50;1707385;83;21193;-60
2020/12/15 03:46:17;;;;;;;25.75;16.73;;;;;;;1.05;82.82;100053.52;1798094;79;22999;-59
2020/12/15 03:48:44;;;;;;;21.97;14.33;;;;;;;0.94;82.96;100055.76;1754688;82;21271;-59
2020/12/15 03:51:12;;;;;;;23.52;14.60;;;;;;;1.03;82.71;100047.55;1725791;81;21540;-59
2020/12/15 03:53:57;;;;;;;23.10;15.53;;;;;;;1.00;82.73;100054.11;1758988;80;21172;-59
2020/12/15 03:56:26;;;;;;;28.02;17.40;;;;;;;0.87;83.11;100050.89;1755032;80;21168;-59
2020/12/15 03:58:55;;;;;;;23.92;16.45;;;;;;;0.79;83.40;100057.77;1766798;80;21177;-59
2020/12/15 04:01:23;;;;;;;20.72;14.63;;;;;;;0.87;83.29;100055.42;1758430;80;21227;-58
2020/12/15 04:03:51;;;;;;;22.02;15.43;;;;;;;1.00;82.93;100061.64;1754922;81;21161;-59
2020/12/15 04:06:21;;;;;;;23.02;16.05;;;;;;;0.98;83.03;100070.92;1731697;81;21576;-59
2020/12/15 04:08:50;;;;;;;23.25;14.47;;;;;;;0.88;83.40;100068.64;1755457;81;21188;-60
2020/12/15 04:11:19;;;;;;;19.62;12.75;;;;;;;0.84;83.70;100069.23;1728379;81;21157;-58
2020/12/15 04:13:48;;;;;;;21.45;14.93;;;;;;;0.89;83.56;100068.09;1731438;81;21624;-58
2020/12/15 04:16:16;;;;;;;20.60;13.55;;;;;;;0.99;83.21;100075.27;1754873;80;21247;-59
2020/12/15 04:18:52;;;;;;;18.10;12.80;;;;;;;0.96;83.44;100072.45;1808439;79;22972;-58
2020/12/15 04:21:20;;;;;;;21.50;13.72;;;;;;;0.86;83.69;100080.05;1767956;80;21175;-58
2020/12/15 04:23:50;;;;;;;22.20;13.83;;;;;;;0.80;83.91;100080.03;1761407;80;21156;-59
2020/12/15 04:26:19;;;;;;;21.52;14.38;;;;;;;0.84;83.72;100075.94;1710179;80;21356;-58
2020/12/15 04:28:49;;;;;;;20.90;14.55;;;;;;;0.91;83.46;100084.31;1768413;80;21299;-58
2020/12/15 04:31:17;;;;;;;22.77;14.93;;;;;;;0.87;83.66;100074.19;1754309;81;21214;-58
2020/12/15 04:33:45;;;;;;;20.50;13.40;;;;;;;0.84;83.91;100086.66;1738700;82;21172;-59
2020/12/15 04:36:12;;;;;;;18.45;12.47;;;;;;;0.81;83.96;100087.05;1712975;83;21642;-59
2020/12/15 04:38:40;;;;;;;16.87;11.88;;;;;;;0.95;83.63;100086.08;1702073;83;21137;-58
2020/12/15 04:41:09;;;;;;;16.55;11.15;;;;;;;1.00;83.42;100084.95;1690681;83;21185;-59
2020/12/15 04:43:38;;;;;;;15.55;10.30;;;;;;;0.94;83.57;100092.45;1711543;83;21165;-61
2020/12/15 04:46:06;;;;;;;18.98;13.65;;;;;;;0.78;83.80;100080.77;1705896;81;21156;-60
2020/12/15 04:48:33;;;;;;;16.90;12.68;;;;;;;0.94;83.65;100096.48;1680863;83;21165;-61
2020/12/15 04:51:03;;;;;;;18.67;11.88;;;;;;;1.04;83.38;100096.92;1703574;83;21162;-61
2020/12/15 04:53:31;;;;;;;17.07;11.73;;;;;;;1.03;83.56;100095.27;1711602;83;21322;-60
2020/12/15 04:56:27;;;;;;;16.55;10.93;;;;;;;0.99;83.76;100092.70;1748668;79;23035;-58
2020/12/15 04:58:57;;;;;;;17.02;11.85;;;;;;;0.89;83.94;100098.41;1701532;83;21133;-60
2020/12/15 05:01:27;;;;;;;15.93;11.30;;;;;;;0.98;83.62;100107.12;1694313;83;21140;-60
2020/12/15 05:04:08;;;;;;;17.98;11.60;;;;;;;1.06;83.48;100100.25;1796387;77;22917;-58
2020/12/15 05:06:37;;;;;;;19.57;11.93;;;;;;;0.96;83.61;100107.30;1758103;81;21144;-58
2020/12/15 05:09:06;;;;;;;17.20;11.95;;;;;;;0.90;83.89;100106.77;1756816;80;21146;-58
2020/12/15 05:11:34;;;;;;;18.32;11.78;;;;;;;0.92;84.07;100105.25;1721806;83;21635;-58
2020/12/15 05:14:14;;;;;;;16.50;11.22;;;;;;;1.15;83.65;100107.06;1818751;79;23118;-58
2020/12/15 05:16:41;;;;;;;17.50;12.35;;;;;;;1.16;83.31;100114.60;1735559;81;21149;-58
2020/12/15 05:19:23;;;;;;;17.23;12.00;;;;;;;1.11;83.40;100106.33;1769657;79;23086;-58
2020/12/15 05:22:01;;;;;;;20.17;13.15;;;;;;;0.99;83.50;100112.27;1733126;82;21182;-59
2020/12/15 05:24:38;;;;;;;18.35;14.90;;;;;;;0.94;83.73;100116.08;1795466;79;28748;-60
2020/12/15 05:27:05;;;;;;;18.60;14.03;;;;;;;1.11;83.27;100114.37;1710574;83;21569;-60
2020/12/15 05:29:35;;;;;;;20.95;14.25;;;;;;;1.34;82.57;100122.91;1661277;83;21220;-60
2020/12/15 05:32:17;;;;;;;16.95;11.30;;;;;;;1.31;82.73;100130.02;1791604;79;22336;-58
2020/12/15 05:34:47;;;;;;;20.20;13.98;;;;;;;1.20;82.96;100125.24;1758875;80;21847;-58
2020/12/15 05:37:32;;;;;;;25.45;16.87;;;;;;;1.15;83.15;100129.03;1779038;79;22989;-58
2020/12/15 05:40:07;;;;;;;27.40;18.10;;;;;;;1.19;82.93;100131.11;1734737;82;21274;-60
2020/12/15 05:42:37;;;;;;;26.60;18.10;;;;;;;1.28;82.69;100134.42;1675769;83;21275;-60
2020/12/15 05:45:06;;;;;;;27.20;19.73;;;;;;;1.23;82.87;100137.73;1696449;83;21302;-60
2020/12/15 05:47:35;;;;;;;29.82;19.23;;;;;;;1.19;83.10;100143.69;1706749;83;21149;-60
2020/12/15 05:50:05;;;;;;;24.63;16.37;;;;;;;1.09;83.19;100148.61;1718363;82;21177;-60
2020/12/15 05:52:32;;;;;;;25.68;17.27;;;;;;;1.14;83.04;100152.84;1720615;83;21118;-60
2020/12/15 05:55:08;;;;;;;24.92;18.40;;;;;;;1.25;82.70;100158.46;1719748;82;21569;-60
2020/12/15 05:57:36;;;;;;;25.97;19.12;;;;;;;1.23;82.85;100157.02;1722843;83;21608;-60
2020/12/15 06:00:10;;;;;;;26.75;19.30;;;;;;;1.19;83.18;100167.83;1706189;83;21568;-60
2020/12/15 06:02:41;;;;;;;26.33;18.05;;;;;;;1.17;83.37;100166.67;1694483;83;21157;-60
2020/12/15 06:05:10;;;;;;;26.15;19.55;;;;;;;1.29;83.00;100172.30;1685208;83;21185;-60
2020/12/15 06:07:39;;;;;;;28.95;20.17;;;;;;;1.33;82.56;100178.41;1694173;83;21845;-60
2020/12/15 06:10:06;;;;;;;26.70;19.45;;;;;;;1.29;82.71;100177.15;1666944;83;21318;-60
2020/12/15 06:12:34;;;;;;;34.65;22.90;;;;;;;1.24;82.88;100179.59;1693887;84;21378;-61
2020/12/15 06:15:03;;;;;;;37.42;22.25;;;;;;;1.23;83.10;100183.83;1718131;82;21149;-60
2020/12/15 06:17:30;;;;;;;40.63;22.37;;;;;;;1.33;82.87;100183.77;1722562;83;21192;-60
2020/12/15 06:19:59;;;;;;;42.95;23.70;;;;;;;1.46;82.47;100189.68;1707524;82;21173;-60
2020/12/15 06:22:27;;;;;;;38.58;21.70;;;;;;;1.42;82.47;100195.12;1693722;85;21213;-60
2020/12/15 06:24:56;;;;;;;38.20;22.65;;;;;;;1.31;82.57;100196.54;1693762;85;21189;-60
2020/12/15 06:27:32;;;;;;;36.68;20.15;;;;;;;1.21;82.70;100193.92;1693867;85;21200;-60
2020/12/15 06:29:59;;;;;;;30.95;20.30;;;;;;;1.25;82.54;100197.86;1702833;82;21157;-60
2020/12/15 06:32:27;;;;;;;31.15;19.12;;;;;;;1.35;82.18;100199.14;1718943;83;21136;-60
2020/12/15 06:34:55;;;;;;;31.40;20.27;;;;;;;1.29;82.35;100193.75;1666641;85;21169;-60
2020/12/15 06:37:24;;;;;;;34.43;20.62;;;;;;;1.23;82.62;100201.27;1694348;84;21196;-60
2020/12/15 06:40:00;;;;;;;34.98;20.05;;;;;;;1.21;82.86;100209.50;1695421;83;21157;-60
2020/12/15 06:42:27;;;;;;;27.70;18.10;;;;;;;1.28;82.56;100211.70;1694990;85;21184;-60
2020/12/15 06:45:07;;;;;;;27.15;18.05;;;;;;;1.37;82.14;100209.17;1669068;85;21173;-60
2020/12/15 06:47:37;;;;;;;23.65;16.32;;;;;;;1.29;82.30;100216.55;1694456;85;21314;-61
2020/12/15 06:50:14;;;;;;;27.15;18.07;;;;;;;1.21;82.80;100218.88;1694758;83;21156;-60
2020/12/15 06:52:42;;;;;;;29.52;17.70;;;;;;;1.16;82.87;100216.50;1706027;83;21698;-60
2020/12/15 06:55:09;;;;;;;32.13;17.80;;;;;;;1.23;82.71;100224.89;1722827;82;21592;-61
2020/12/15 06:57:38;;;;;;;26.07;17.27;;;;;;;1.31;82.27;100234.09;1688718;84;21626;-61
2020/12/15 07:00:11;;;;;;;21.80;14.55;;;;;;;1.27;82.59;100236.05;1698189;83;21619;-61
2020/12/15 07:02:39;;;;;;;23.42;16.23;;;;;;;1.25;82.77;100234.06;1715677;83;21745;-61
2020/12/15 07:05:26;;;;;;;23.67;16.45;;;;;;;1.19;82.87;100235.70;1717029;83;21536;-62
2020/12/15 07:08:03;;;;;;;26.82;17.15;;;;;;;1.27;82.70;100235.55;1694595;83;21173;-62
2020/12/15 07:10:31;;;;;;;21.97;14.23;;;;;;;1.36;82.34;100237.02;1709286;82;21204;-62
2020/12/15 07:13:01;;;;;;;21.80;15.45;;;;;;;1.28;82.58;100236.34;1693964;83;21167;-62
2020/12/15 07:15:29;;;;;;;27.27;17.90;;;;;;;1.21;82.79;100244.88;1693964;85;21220;-62
2020/12/15 07:17:57;;;;;;;24.92;16.80;;;;;;;1.16;82.92;100240.13;1721612;83;21603;-62
2020/12/15 07:20:25;;;;;;;24.87;15.98;;;;;;;1.26;82.81;100237.91;1722851;82;21177;-62
2020/12/15 07:22:52;;;;;;;25.37;15.72;;;;;;;1.40;82.42;100245.48;1706134;83;21172;-62
2020/12/15 07:25:20;;;;;;;28.55;16.42;;;;;;;1.38;82.48;100244.88;1694111;85;21761;-63
2020/12/15 07:27:48;;;;;;;28.45;16.67;;;;;;;1.30;82.68;100247.72;1693977;85;21695;-62
2020/12/15 07:30:19;;;;;;;30.60;17.27;;;;;;;1.23;82.86;100240.16;1694136;85;21169;-62
2020/12/15 07:32:47;;;;;;;27.50;17.52;;;;;;;1.27;82.72;100239.56;1659211;85;22090;-62
2020/12/15 07:35:22;;;;;;;20.08;12.55;;;;;;;1.42;82.38;100237.55;1698809;83;21609;-61
2020/12/15 07:37:56;;;;;;;27.20;15.15;;;;;;;1.35;82.46;100234.01;1698792;83;21150;-61
2020/12/15 07:40:29;;;;;;;28.90;17.75;;;;;;;1.23;82.81;100238.30;1698855;84;21145;-60
2020/12/15 07:43:00;;;;;;;26.70;17.65;;;;;;;1.24;82.82;100241.82;1702751;84;21114;-61
2020/12/15 07:45:30;;;;;;;29.45;17.57;;;;;;;1.32;82.67;100237.09;1706466;82;21621;-60
2020/12/15 07:47:59;;;;;;;28.50;16.37;;;;;;;1.33;82.89;100244.13;1680922;85;21162;-60
2020/12/15 07:50:28;;;;;;;31.10;17.65;;;;;;;1.30;83.08;100245.87;1684645;82;21296;-60
2020/12/15 07:53:10;;;;;;;34.92;21.77;;;;;;;1.25;83.21;100243.45;1673291;83;21173;-61
2020/12/15 07:55:37;;;;;;;34.88;19.70;;;;;;;1.34;83.01;100243.61;1723732;82;21586;-61
2020/12/15 07:58:14;;;;;;;33.70;17.92;;;;;;;1.45;82.61;100245.73;1695041;82;21181;-61
2020/12/15 08:00:42;;;;;;;39.55;20.80;;;;;;;1.43;82.78;100250.45;1693438;82;21193;-61
2020/12/15 08:03:09;;;;;;;44.15;21.82;;;;;;;1.31;83.02;100247.50;1696602;82;21162;-61
2020/12/15 08:05:37;;;;;;;43.48;23.32;;;;;;;1.24;83.17;100249.87;1699302;83;21199;-61
2020/12/15 08:08:04;;;;;;;47.05;24.27;;;;;;;1.34;82.88;100252.50;1662367;84;21260;-62
2020/12/15 08:10:33;;;;;;;41.73;21.52;;;;;;;1.33;82.95;100256.20;1650363;84;21352;-63
2020/12/15 08:13:04;;;;;;;50.05;24.95;;;;;;;1.28;83.25;100257.30;1694430;84;21185;-61
2020/12/15 08:15:37;;;;;;;37.75;20.72;;;;;;;1.21;83.44;100259.62;1684507;84;21379;-61
2020/12/15 08:18:07;;;;;;;42.88;22.32;;;;;;;1.26;83.31;100262.55;1676684;84;21181;-61
2020/12/15 08:20:35;;;;;;;50.05;25.02;;;;;;;1.32;83.04;100261.23;1692706;82;21173;-61
2020/12/15 08:23:12;;;;;;;39.33;21.57;;;;;;;1.23;83.22;100258.42;1709408;81;21343;-62
2020/12/15 08:25:43;;;;;;;45.17;24.02;;;;;;;1.14;83.56;100262.27;1714663;82;21160;-62
2020/12/15 08:28:22;;;;;;;43.92;25.05;;;;;;;1.08;83.88;100258.22;1714704;83;21212;-61
2020/12/15 08:30:52;;;;;;;55.33;31.50;;;;;;;1.14;83.74;100260.09;1705868;84;21542;-62
2020/12/15 08:33:28;;;;;;;43.10;24.70;;;;;;;1.25;83.45;100259.55;1647514;87;21712;-62
2020/12/15 08:35:57;;;;;;;47.25;26.37;;;;;;;1.20;83.66;100251.28;1616257;87;21174;-62
2020/12/15 08:41:03;;;;;;;35.90;21.25;;;;;;;1.26;83.93;100255.34;1802502;79;22829;-59
2020/12/15 08:43:31;;;;;;;41.25;22.15;;;;;;;1.26;83.69;100256.67;1760909;81;21164;-63
2020/12/15 08:45:58;;;;;;;43.05;23.83;;;;;;;1.18;83.92;100258.69;1760987;80;21294;-62
2020/12/15 08:48:26;;;;;;;39.13;23.25;;;;;;;1.22;83.87;100263.46;1727132;82;21153;-62
2020/12/15 08:50:54;;;;;;;40.17;21.82;;;;;;;1.35;83.60;100261.34;1746119;82;21176;-62
2020/12/15 08:53:21;;;;;;;43.92;24.37;;;;;;;1.35;83.73;100254.64;1736360;82;21189;-62
2020/12/15 08:55:49;;;;;;;45.80;24.82;;;;;;;1.29;83.88;100259.47;1739971;80;21503;-59
2020/12/15 08:58:17;;;;;;;39.08;21.90;;;;;;;1.29;83.86;100252.77;1754607;81;21117;-59
2020/12/15 09:00:46;;;;;;;36.75;21.33;;;;;;;1.44;83.59;100260.99;1724497;82;21150;-59
2020/12/15 09:03:18;;;;;;;48.48;26.50;;;;;;;1.43;83.57;100254.47;1753057;82;21177;-61
2020/12/15 09:05:55;;;;;;;45.38;24.25;;;;;;;1.34;83.73;100259.20;1755874;80;21173;-61
2020/12/15 09:08:24;;;;;;;48.23;27.62;;;;;;;1.30;84.01;100264.64;1761123;81;21143;-62
2020/12/15 09:10:55;;;;;;;44.48;23.75;;;;;;;1.38;83.77;100263.11;1761084;80;21209;-62
2020/12/15 09:13:23;;;;;;;41.45;22.75;;;;;;;1.51;83.49;100265.05;1760839;81;21133;-62
2020/12/15 09:15:55;;;;;;;44.25;26.87;;;;;;;1.45;83.57;100264.51;1728595;81;21185;-62
2020/12/15 09:18:34;;;;;;;42.83;22.70;;;;;;;1.45;83.82;100272.02;1755038;81;21291;-63
2020/12/15 09:21:16;;;;;;;38.58;20.08;;;;;;;1.45;83.93;100264.51;1754744;80;21614;-62
2020/12/15 09:23:53;;;;;;;37.90;22.93;;;;;;;1.57;83.55;100267.42;1754844;81;21196;-62
2020/12/15 09:26:22;;;;;;;40.08;23.75;;;;;;;1.66;83.11;100262.21;1753703;81;21722;-62
2020/12/15 09:28:50;;;;;;;37.85;21.90;;;;;;;1.65;83.26;100264.06;1753544;82;21298;-62
2020/12/15 09:31:18;;;;;;;39.45;23.25;;;;;;;1.66;83.50;100264.89;1730627;81;21214;-62
2020/12/15 09:33:46;;;;;;;39.48;23.62;;;;;;;1.67;83.56;100260.66;1734880;81;21172;-62
2020/12/15 09:36:19;;;;;;;43.83;27.93;;;;;;;1.85;83.29;100265.45;1753576;82;21165;-62
2020/12/15 09:38:48;;;;;;;45.28;26.93;;;;;;;2.05;82.82;100266.34;1753710;82;21510;-62
2020/12/15 09:41:15;;;;;;;39.15;24.35;;;;;;;2.03;82.66;100267.05;1746391;82;21341;-62
2020/12/15 09:43:42;;;;;;;36.20;22.27;;;;;;;1.95;82.69;100262.69;1746154;82;21154;-62
2020/12/15 09:46:10;;;;;;;35.63;22.15;;;;;;;1.89;82.87;100260.83;1755695;81;21162;-62
2020/12/15 09:48:37;;;;;;;39.33;22.75;;;;;;;1.99;82.61;100260.42;1727763;82;21287;-61
2020/12/15 09:51:04;;;;;;;37.08;22.37;;;;;;;2.07;82.13;100262.93;1757892;80;21145;-62
2020/12/15 09:53:32;;;;;;;37.63;23.67;;;;;;;2.02;82.15;100264.05;1758426;80;21168;-62
2020/12/15 09:56:00;;;;;;;36.20;24.15;;;;;;;1.96;82.34;100268.38;1752155;81;21149;-62
2020/12/15 09:58:29;;;;;;;36.42;22.52;;;;;;;1.96;82.58;100267.55;1742081;82;21256;-62
2020/12/15 10:00:58;;;;;;;31.33;20.35;;;;;;;2.09;82.24;100268.91;1722301;81;21716;-61
2020/12/15 10:03:26;;;;;;;35.10;20.77;;;;;;;2.23;81.81;100266.56;1743030;81;21149;-62
2020/12/15 10:05:53;;;;;;;38.13;23.10;;;;;;;2.16;81.58;100268.41;1753941;80;21198;-62
2020/12/15 10:08:22;;;;;;;38.67;22.35;;;;;;;2.05;81.82;100264.17;1738800;81;21585;-62
2020/12/15 10:10:50;;;;;;;38.25;23.52;;;;;;;1.96;81.87;100260.33;1750515;80;21615;-62
2020/12/15 10:13:18;;;;;;;39.38;24.27;;;;;;;2.06;81.63;100261.27;1727809;81;21286;-62
2020/12/15 10:15:45;;;;;;;43.38;25.92;;;;;;;2.07;81.55;100255.38;1754243;80;21441;-62
2020/12/15 10:18:13;;;;;;;39.38;24.35;;;;;;;1.96;81.76;100256.81;1754860;82;21307;-62
2020/12/15 10:20:40;;;;;;;40.05;24.47;;;;;;;1.89;82.05;100261.34;1745546;81;21303;-62
2020/12/15 10:23:07;;;;;;;45.90;25.27;;;;;;;1.94;81.82;100262.91;1747722;81;21715;-61
2020/12/15 10:25:34;;;;;;;39.58;21.02;;;;;;;2.03;81.54;100271.08;1754623;80;21224;-61
2020/12/15 10:28:02;;;;;;;32.53;18.85;;;;;;;1.97;81.59;100267.87;1754904;82;21154;-61
2020/12/15 10:30:29;;;;;;;36.83;21.07;;;;;;;1.82;81.83;100269.89;1749814;80;21585;-62
2020/12/15 10:32:57;;;;;;;45.48;24.32;;;;;;;1.71;82.16;100270.47;1758877;80;21583;-62
2020/12/15 10:35:24;;;;;;;44.98;26.05;;;;;;;1.71;82.03;100268.62;1746126;80;21250;-62
2020/12/15 10:37:51;;;;;;;38.63;22.10;;;;;;;1.77;81.92;100270.48;1752290;81;21172;-62
2020/12/15 10:40:18;;;;;;;42.98;22.67;;;;;;;1.71;82.14;100262.42;1745816;81;21202;-62
2020/12/15 10:42:46;;;;;;;41.02;21.70;;;;;;;1.63;82.42;100265.30;1754379;81;21153;-61
2020/12/15 10:45:13;;;;;;;47.50;24.18;;;;;;;1.64;82.42;100266.42;1754859;80;21186;-62
2020/12/15 10:47:40;;;;;;;39.88;22.77;;;;;;;1.73;82.14;100259.03;1754666;81;21122;-61
2020/12/15 10:50:07;;;;;;;36.90;19.30;;;;;;;1.63;82.31;100261.28;1753035;80;21161;-61
2020/12/15 10:52:34;;;;;;;42.38;22.67;;;;;;;1.47;82.79;100265.95;1745638;82;21133;-62
2020/12/15 10:55:04;;;;;;;39.90;23.50;;;;;;;1.48;82.79;100262.25;1723407;82;21186;-61
2020/12/15 10:57:31;;;;;;;46.40;25.68;;;;;;;1.57;82.64;100256.69;1756245;80;21148;-61
2020/12/15 10:59:59;;;;;;;47.83;26.15;;;;;;;1.49;82.89;100258.52;1755950;80;21165;-61
2020/12/15 11:02:26;;;;;;;42.30;22.30;;;;;;;1.47;83.20;100258.42;1727641;82;21161;-61
2020/12/15 11:04:53;;;;;;;45.00;25.72;;;;;;;1.44;83.37;100265.02;1758006;80;21625;-61
2020/12/15 11:07:22;;;;;;;43.95;25.00;;;;;;;1.52;83.23;100271.24;1760647;81;21300;-61
2020/12/15 11:09:49;;;;;;;40.88;22.52;;;;;;;1.62;82.94;100265.81;1757351;80;21857;-61
2020/12/15 11:12:17;;;;;;;46.85;23.70;;;;;;;1.59;83.11;100263.53;1731324;81;21159;-61
2020/12/15 11:14:44;;;;;;;43.13;22.93;;;;;;;1.49;83.35;100273.78;1726106;81;21194;-62
2020/12/15 11:17:12;;;;;;;38.60;22.60;;;;;;;1.53;83.29;100269.68;1750501;82;21688;-62
2020/12/15 11:19:40;;;;;;;35.65;21.20;;;;;;;1.62;82.97;100273.86;1751752;80;21544;-62
2020/12/15 11:22:07;;;;;;;36.38;20.50;;;;;;;1.59;83.04;100270.75;1745386;82;21348;-62
2020/12/15 11:24:36;;;;;;;35.50;19.48;;;;;;;1.53;83.34;100273.70;1759916;81;21759;-61
2020/12/15 11:27:04;;;;;;;39.20;22.48;;;;;;;1.50;83.60;100278.14;1761028;81;21178;-61
2020/12/15 11:29:31;;;;;;;39.08;23.18;;;;;;;1.56;83.46;100278.67;1753992;80;21147;-61
2020/12/15 11:31:58;;;;;;;38.33;23.42;;;;;;;1.69;83.13;100283.28;1760444;81;21186;-61